createdAt,value
2022-11-17T00:01:44.711Z,77.17
2022-11-17T00:04:48.431Z,86.80
2022-11-17T00:07:52.484Z,74.20
2022-11-17T00:10:56.281Z,67.57
2022-11-17T00:14:18.981Z,71.57
2022-11-17T00:17:22.891Z,73.00
2022-11-17T00:20:43.992Z,70.17
2022-11-17T00:23:51.026Z,70.57
2022-11-17T00:27:03.520Z,66.67
2022-11-17T00:30:32.880Z,70.23
2022-11-17T00:33:59.210Z,62.77
2022-11-17T00:37:03.573Z,68.67
2022-11-17T00:40:08.392Z,62.03
2022-11-17T00:43:12.047Z,74.70
2022-11-17T00:46:17.201Z,67.87
2022-11-17T00:49:25.230Z,70.80
2022-11-17T00:52:28.855Z,68.53
2022-11-17T00:55:32.539Z,63.50
2022-11-17T00:58:37.040Z,68.93
2022-11-17T01:01:42.894Z,65.23
2022-11-17T01:04:46.770Z,63.57
2022-11-17T01:07:50.392Z,72.67
2022-11-17T01:10:53.974Z,61.60
2022-11-17T01:13:59.463Z,65.87
2022-11-17T01:17:04.439Z,63.43
2022-11-17T01:20:09.905Z,68.50
2022-11-17T01:23:13.817Z,79.23
2022-11-17T01:26:19.621Z,80.23
2022-11-17T01:29:23.351Z,76.47
2022-11-17T01:32:28.517Z,82.60
2022-11-17T01:35:32.470Z,79.47
2022-11-17T01:38:36.364Z,79.63
2022-11-17T01:41:39.871Z,76.70
2022-11-17T01:44:57.449Z,74.93
2022-11-17T01:48:04.889Z,73.63
2022-11-17T01:51:08.751Z,73.27
2022-11-17T01:54:17.441Z,77.93
2022-11-17T01:57:26.400Z,76.07
2022-11-17T02:00:31.111Z,64.50
2022-11-17T02:03:38.302Z,63.07
2022-11-17T02:06:42.500Z,65.97
2022-11-17T02:09:46.421Z,61.47
2022-11-17T02:12:50.985Z,68.67
2022-11-17T02:15:54.665Z,64.20
2022-11-17T02:18:59.709Z,62.57
2022-11-17T02:22:35.889Z,65.63
2022-11-17T02:26:10.379Z,63.20
2022-11-17T02:29:24.210Z,65.30
2022-11-17T02:32:34.480Z,59.63
2022-11-17T02:35:46.978Z,62.97
2022-11-17T02:38:59.959Z,61.67
2022-11-17T02:42:10.479Z,65.97
2022-11-17T02:45:18.881Z,64.37
2022-11-17T02:48:28.493Z,66.03
2022-11-17T02:51:33.693Z,66.93
2022-11-17T02:54:37.388Z,61.63
2022-11-17T02:57:42.430Z,61.23
2022-11-17T03:00:58.368Z,64.87
2022-11-17T03:04:27.664Z,63.30
2022-11-17T03:07:48.485Z,65.60
2022-11-17T03:10:58.698Z,65.40
2022-11-17T03:14:10.196Z,62.17
2022-11-17T03:17:20.958Z,62.53
2022-11-17T03:20:28.794Z,62.33
2022-11-17T03:23:40.319Z,58.93
2022-11-17T03:26:48.839Z,62.90
2022-11-17T03:29:55.822Z,65.97
2022-11-17T03:33:06.607Z,65.53
2022-11-17T03:36:14.802Z,66.47
2022-11-17T03:39:24.341Z,63.63
2022-11-17T03:42:31.448Z,63.60
2022-11-17T03:45:37.418Z,59.80
2022-11-17T03:48:50.031Z,69.33
2022-11-17T03:51:54.168Z,66.97
2022-11-17T03:54:57.946Z,68.37
2022-11-17T03:58:07.280Z,66.07
2022-11-17T04:01:11.467Z,68.90
2022-11-17T04:04:19.077Z,68.80
2022-11-17T04:07:22.801Z,63.97
2022-11-17T04:10:26.928Z,71.57
2022-11-17T04:13:48.117Z,74.90
2022-11-17T04:16:51.827Z,154.63
2022-11-17T04:19:56.888Z,93.63
2022-11-17T04:23:09.496Z,69.90
2022-11-17T04:26:30.668Z,67.83
2022-11-17T04:29:34.478Z,71.40
2022-11-17T04:32:38.277Z,67.03
2022-11-17T04:35:43.324Z,70.73
2022-11-17T04:38:48.613Z,72.87
2022-11-17T04:41:55.131Z,72.77
2022-11-17T04:44:58.717Z,73.87
2022-11-17T04:48:02.398Z,75.77
2022-11-17T04:51:07.687Z,74.37
2022-11-17T04:54:13.011Z,94.67
2022-11-17T04:57:16.758Z,77.40
2022-11-17T05:00:21.049Z,74.53
2022-11-17T05:03:24.709Z,66.73
2022-11-17T05:06:32.259Z,69.77
2022-11-17T05:09:36.019Z,74.80
2022-11-17T05:12:57.227Z,71.07
2022-11-17T05:16:18.255Z,73.13
2022-11-17T05:19:24.096Z,66.97
2022-11-17T05:22:46.509Z,92.87
2022-11-17T05:25:50.091Z,72.33
2022-11-17T05:28:54.270Z,73.00
2022-11-17T05:31:57.859Z,93.37
2022-11-17T05:35:01.528Z,78.13
2022-11-17T05:38:06.629Z,68.23
2022-11-17T05:41:10.369Z,72.03
2022-11-17T05:44:14.064Z,67.40
2022-11-17T05:47:17.940Z,68.37
2022-11-17T05:50:21.679Z,68.37
2022-11-17T05:53:27.369Z,68.60
2022-11-17T05:56:40.148Z,71.57
2022-11-17T05:59:48.471Z,72.40
2022-11-17T06:02:56.929Z,73.63
2022-11-17T06:06:00.611Z,70.13
2022-11-17T06:09:06.366Z,69.80
2022-11-17T06:12:12.168Z,70.00
2022-11-17T06:15:16.000Z,74.43
2022-11-17T06:18:20.797Z,62.03
2022-11-17T06:21:24.730Z,60.57
2022-11-17T06:24:30.371Z,54.00
2022-11-17T06:27:34.929Z,60.23
2022-11-17T06:30:40.188Z,60.27
2022-11-17T06:33:44.299Z,62.77
2022-11-17T06:36:48.011Z,59.57
2022-11-17T06:39:53.300Z,63.70
2022-11-17T06:43:08.692Z,70.83
2022-11-17T06:46:12.483Z,72.40
2022-11-17T06:49:16.136Z,70.23
2022-11-17T06:52:19.860Z,69.00
2022-11-17T06:55:25.127Z,65.90
2022-11-17T06:58:29.936Z,73.73
2022-11-17T07:01:33.842Z,68.73
2022-11-17T07:04:38.106Z,74.33
2022-11-17T07:07:41.869Z,73.83
2022-11-17T07:10:49.404Z,74.90
2022-11-17T07:13:53.247Z,74.87
2022-11-17T07:16:57.027Z,64.17
2022-11-17T07:20:00.777Z,74.07
2022-11-17T07:23:04.528Z,66.00
2022-11-17T07:26:10.168Z,71.27
2022-11-17T07:29:13.966Z,73.67
2022-11-17T07:32:17.667Z,68.00
2022-11-17T07:35:21.487Z,65.73
2022-11-17T07:38:25.226Z,71.27
2022-11-17T07:41:30.490Z,73.13
2022-11-17T07:44:34.577Z,73.83
2022-11-17T07:47:38.371Z,74.27
2022-11-17T07:50:42.667Z,69.47
2022-11-17T07:53:46.425Z,69.63
2022-11-17T07:56:51.717Z,77.03
2022-11-17T07:59:55.667Z,77.13
2022-11-17T08:03:02.226Z,78.50
2022-11-17T08:06:06.657Z,79.33
2022-11-17T08:09:10.957Z,77.97
2022-11-17T08:12:16.685Z,69.43
2022-11-17T08:15:21.547Z,70.40
2022-11-17T08:18:25.296Z,69.47
2022-11-17T08:21:29.028Z,81.30
2022-11-17T08:24:32.785Z,77.53
2022-11-17T08:27:38.024Z,72.57
2022-11-17T08:30:41.696Z,74.90
2022-11-17T08:33:45.573Z,78.07
2022-11-17T08:36:49.286Z,77.63
2022-11-17T08:39:53.067Z,76.93
2022-11-17T08:43:01.175Z,82.97
2022-11-17T08:46:05.720Z,83.57
2022-11-17T08:49:09.425Z,79.80
2022-11-17T08:52:13.127Z,70.53
2022-11-17T08:55:17.295Z,64.83
2022-11-17T08:58:22.558Z,65.60
2022-11-17T09:01:26.255Z,65.43
2022-11-17T09:04:30.087Z,65.80
2022-11-17T09:07:35.047Z,66.93
2022-11-17T09:10:39.333Z,61.83
2022-11-17T09:13:45.880Z,62.13
2022-11-17T09:16:49.630Z,61.33
2022-11-17T09:19:53.424Z,62.23
2022-11-17T09:23:00.941Z,58.90
2022-11-17T09:26:07.012Z,50.40
2022-11-17T09:29:12.386Z,48.23
2022-11-17T09:32:17.064Z,49.27
2022-11-17T09:35:23.001Z,53.10
2022-11-17T09:38:26.943Z,60.67
2022-11-17T09:41:37.375Z,66.87
2022-11-17T09:44:49.411Z,59.17
2022-11-17T09:48:18.626Z,57.67
2022-11-17T09:51:27.730Z,65.50
2022-11-17T09:54:42.835Z,58.73
2022-11-17T09:57:50.662Z,58.73
2022-11-17T10:00:56.012Z,59.40
2022-11-17T10:04:01.653Z,55.87
2022-11-17T10:07:07.087Z,57.80
2022-11-17T10:10:20.206Z,55.17
2022-11-17T10:13:28.441Z,50.57
2022-11-17T10:16:33.660Z,51.90
2022-11-17T10:19:39.863Z,48.47
2022-11-17T10:22:44.371Z,48.97
2022-11-17T10:25:49.421Z,48.33
2022-11-17T10:29:09.209Z,53.57
2022-11-17T10:32:17.041Z,50.10
2022-11-17T10:35:22.327Z,49.80
2022-11-17T10:38:29.961Z,54.67
2022-11-17T10:41:39.162Z,54.73
2022-11-17T10:44:44.651Z,55.33
2022-11-17T10:47:50.237Z,53.20
2022-11-17T10:50:56.531Z,51.23
2022-11-17T10:54:05.831Z,47.60
2022-11-17T10:57:14.881Z,54.63
2022-11-17T11:00:28.155Z,51.37
2022-11-17T11:03:35.166Z,47.70
2022-11-17T11:06:39.231Z,50.10
2022-11-17T11:09:49.972Z,48.77
2022-11-17T11:13:01.411Z,47.40
2022-11-17T11:16:06.394Z,46.30
2022-11-17T11:19:16.485Z,46.33
2022-11-17T11:22:35.383Z,59.87
2022-11-17T11:25:46.371Z,45.07
2022-11-17T11:29:04.252Z,49.53
2022-11-17T11:32:21.912Z,47.57
2022-11-17T11:35:53.420Z,44.43
2022-11-17T11:39:01.993Z,40.70
2022-11-17T11:42:43.297Z,43.37
2022-11-17T11:45:59.512Z,44.97
2022-11-17T11:49:18.083Z,41.97
2022-11-17T11:52:27.956Z,46.83
2022-11-17T11:55:35.423Z,41.27
2022-11-17T11:58:46.822Z,38.03
2022-11-17T12:01:58.110Z,39.90
2022-11-17T12:05:13.551Z,42.70
2022-11-17T12:08:27.975Z,49.13
2022-11-17T12:11:50.591Z,44.00
2022-11-17T12:15:29.671Z,43.97
2022-11-17T12:18:33.741Z,48.87
2022-11-17T12:21:37.761Z,51.97
2022-11-17T12:24:43.731Z,55.67
2022-11-17T12:27:50.299Z,50.87
2022-11-17T12:30:56.894Z,55.23
2022-11-17T12:34:23.730Z,52.13
2022-11-17T12:37:27.761Z,56.43
2022-11-17T12:40:48.377Z,52.27
2022-11-17T12:43:52.001Z,55.33
2022-11-17T12:47:07.761Z,53.60
2022-11-17T12:50:52.631Z,54.00
2022-11-17T12:54:07.041Z,60.70
2022-11-17T12:57:18.311Z,67.37
2022-11-17T13:00:24.551Z,61.93
2022-11-17T13:03:36.252Z,57.57
2022-11-17T13:06:59.122Z,60.67
2022-11-17T13:10:03.121Z,67.63
2022-11-17T13:13:18.260Z,63.53
2022-11-17T13:16:23.431Z,63.83
2022-11-17T13:19:37.284Z,62.47
2022-11-17T13:22:42.231Z,66.87
2022-11-17T13:25:46.255Z,57.63
2022-11-17T13:29:04.661Z,64.17
2022-11-17T13:32:20.561Z,61.70
2022-11-17T13:35:28.640Z,68.90
2022-11-17T13:38:32.582Z,59.93
2022-11-17T13:41:40.230Z,65.33
2022-11-17T13:44:48.351Z,61.97
2022-11-17T13:47:54.000Z,61.57
2022-11-17T13:50:58.061Z,64.63
2022-11-17T13:54:04.554Z,70.87
2022-11-17T13:57:09.928Z,66.83
2022-11-17T14:00:20.491Z,61.37
2022-11-17T14:03:37.460Z,63.17
2022-11-17T14:06:57.298Z,61.80
2022-11-17T14:10:14.650Z,64.43
2022-11-17T14:13:24.830Z,66.20
2022-11-17T14:16:30.980Z,62.53
2022-11-17T14:19:36.311Z,65.30
2022-11-17T14:22:40.151Z,65.97
2022-11-17T14:25:45.916Z,61.90
2022-11-17T14:28:51.190Z,58.87
2022-11-17T14:31:55.090Z,64.50
2022-11-17T14:35:00.441Z,60.67
2022-11-17T14:38:04.380Z,66.23
2022-11-17T14:41:08.381Z,67.20
2022-11-17T14:44:12.500Z,71.50
2022-11-17T14:47:16.304Z,64.00
2022-11-17T14:50:21.630Z,67.13
2022-11-17T14:53:25.938Z,59.67
2022-11-17T14:56:29.951Z,64.43
2022-11-17T14:59:33.670Z,67.83
2022-11-17T15:02:38.200Z,62.43
2022-11-17T15:05:47.253Z,68.90
2022-11-17T15:08:55.430Z,67.13
2022-11-17T15:11:59.273Z,61.47
2022-11-17T15:15:02.990Z,77.63
2022-11-17T15:18:06.831Z,70.17
2022-11-17T15:21:12.220Z,73.73
2022-11-17T15:24:16.315Z,68.63
2022-11-17T15:27:20.090Z,68.40
2022-11-17T15:30:24.230Z,65.33
2022-11-17T15:33:27.961Z,69.80
2022-11-17T15:36:33.323Z,69.77
2022-11-17T15:39:37.240Z,71.13
2022-11-17T15:42:41.052Z,65.17
2022-11-17T15:45:44.621Z,67.50
2022-11-17T15:48:52.427Z,71.37
2022-11-17T15:51:57.670Z,82.30
2022-11-17T15:55:01.422Z,83.47
2022-11-17T15:58:05.071Z,80.60
2022-11-17T16:01:11.134Z,78.03
2022-11-17T16:04:16.703Z,76.80
2022-11-17T16:07:27.043Z,100.17
2022-11-17T16:10:30.941Z,81.90
2022-11-17T16:13:35.000Z,83.37
2022-11-17T16:16:40.999Z,85.87
2022-11-17T16:19:44.703Z,86.97
2022-11-17T16:22:49.861Z,69.60
2022-11-17T16:25:53.662Z,84.30
2022-11-17T16:28:58.950Z,87.07
2022-11-17T16:32:02.821Z,80.93
2022-11-17T16:35:07.161Z,74.93
2022-11-17T16:38:16.801Z,76.97
2022-11-17T16:41:20.581Z,69.20
2022-11-17T16:44:24.392Z,105.53
2022-11-17T16:47:28.771Z,80.17
2022-11-17T16:50:32.521Z,83.00
2022-11-17T16:53:37.712Z,79.33
2022-11-17T16:56:41.462Z,88.37
2022-11-17T16:59:45.331Z,70.90
2022-11-17T17:02:50.663Z,83.73
2022-11-17T17:05:54.483Z,110.30
2022-11-17T17:09:01.490Z,91.77
2022-11-17T17:12:05.622Z,90.60
2022-11-17T17:15:10.253Z,82.10
2022-11-17T17:18:14.042Z,80.23
2022-11-17T17:21:19.752Z,72.03
2022-11-17T17:24:24.891Z,74.40
2022-11-17T17:27:31.735Z,79.50
2022-11-17T17:30:35.471Z,82.53
2022-11-17T17:33:39.543Z,104.83
2022-11-17T17:36:43.292Z,81.53
2022-11-17T17:39:48.514Z,94.07
2022-11-17T17:42:52.279Z,73.53
2022-11-17T17:46:00.850Z,80.77
2022-11-17T17:49:05.291Z,101.73
2022-11-17T17:52:13.635Z,110.07
2022-11-17T17:55:19.071Z,72.30
2022-11-17T17:58:22.682Z,72.43
2022-11-17T18:01:30.472Z,75.50
2022-11-17T18:04:34.202Z,77.67
2022-11-17T18:07:37.923Z,77.10
2022-11-17T18:10:43.179Z,87.23
2022-11-17T18:13:48.569Z,77.43
2022-11-17T18:16:52.842Z,69.83
2022-11-17T18:19:56.701Z,71.27
2022-11-17T18:23:00.474Z,77.70
2022-11-17T18:26:12.279Z,73.67
2022-11-17T18:29:18.680Z,80.67
2022-11-17T18:32:22.563Z,80.57
2022-11-17T18:35:26.428Z,93.80
2022-11-17T18:38:30.261Z,164.43
2022-11-17T18:41:36.833Z,144.53
2022-11-17T18:44:40.631Z,129.70
2022-11-17T18:47:44.381Z,114.30
2022-11-17T18:51:17.726Z,94.57
2022-11-17T18:54:12.835Z,101.33
2022-11-17T18:57:19.084Z,100.67
2022-11-17T19:00:23.521Z,123.67
2022-11-17T19:03:27.452Z,97.57
2022-11-17T19:06:32.830Z,101.03
2022-11-17T19:09:36.630Z,98.07
2022-11-17T19:12:41.835Z,96.33
2022-11-17T19:15:45.651Z,96.07
2022-11-17T19:18:51.151Z,96.30
2022-11-17T19:21:55.462Z,95.30
2022-11-17T19:24:59.232Z,105.00
2022-11-17T19:28:04.501Z,115.40
2022-11-17T19:31:11.092Z,126.83
2022-11-17T19:34:15.060Z,123.17
2022-11-17T19:37:18.751Z,113.87
2022-11-17T19:40:22.501Z,115.47
2022-11-17T19:43:27.611Z,115.77
2022-11-17T19:46:31.662Z,113.70
2022-11-17T19:49:35.499Z,102.87
2022-11-17T19:52:39.132Z,106.37
2022-11-17T19:55:42.962Z,102.43
2022-11-17T19:58:48.860Z,107.10
2022-11-17T20:01:52.662Z,95.83
2022-11-17T20:04:56.571Z,110.37
2022-11-17T20:08:00.670Z,111.17
2022-11-17T20:11:09.153Z,117.73
2022-11-17T20:14:15.641Z,117.13
2022-11-17T20:17:19.301Z,115.70
2022-11-17T20:20:23.141Z,116.27
2022-11-17T20:23:26.932Z,111.90
2022-11-17T20:26:32.773Z,108.27
2022-11-17T20:29:38.051Z,96.93
2022-11-17T20:32:41.831Z,100.03
2022-11-17T20:35:45.570Z,94.73
2022-11-17T20:38:52.252Z,88.10
2022-11-17T20:41:55.941Z,84.30
2022-11-17T20:45:01.077Z,87.57
2022-11-17T20:48:04.892Z,80.90
2022-11-17T20:51:12.332Z,86.77
2022-11-17T20:54:16.232Z,81.67
2022-11-17T20:57:20.472Z,77.40
2022-11-17T21:00:25.861Z,87.13
2022-11-17T21:03:29.661Z,79.37
2022-11-17T21:06:33.487Z,99.23
2022-11-17T21:09:37.238Z,109.00
2022-11-17T21:12:40.873Z,94.60
2022-11-17T21:15:47.234Z,90.07
2022-11-17T21:18:51.171Z,80.63
2022-11-17T21:21:55.331Z,89.13
2022-11-17T21:24:59.041Z,75.67
2022-11-17T21:28:02.760Z,83.70
2022-11-17T21:31:10.061Z,69.70
2022-11-17T21:34:16.983Z,73.10
2022-11-17T21:37:21.303Z,79.10
2022-11-17T21:40:25.213Z,60.40
2022-11-17T21:43:28.941Z,64.03
2022-11-17T21:46:35.471Z,55.63
2022-11-17T21:49:39.291Z,58.63
2022-11-17T21:52:43.271Z,52.80
2022-11-17T21:55:47.061Z,50.47
2022-11-17T21:58:55.360Z,44.97
2022-11-17T22:02:00.551Z,42.43
2022-11-17T22:05:04.211Z,45.07
2022-11-17T22:08:07.971Z,38.77
2022-11-17T22:11:12.932Z,40.83
2022-11-17T22:14:18.431Z,37.30
2022-11-17T22:17:23.672Z,42.20
2022-11-17T22:20:27.531Z,43.57
2022-11-17T22:23:31.661Z,37.00
2022-11-17T22:26:38.576Z,53.90
2022-11-17T22:29:42.446Z,40.07
2022-11-17T22:32:48.013Z,34.13
2022-11-17T22:35:52.047Z,38.93
2022-11-17T22:38:55.954Z,36.63
2022-11-17T22:41:59.694Z,38.00
2022-11-17T22:45:03.553Z,45.63
2022-11-17T22:48:09.696Z,37.07
2022-11-17T22:51:34.031Z,42.70
2022-11-17T22:54:38.189Z,38.47
2022-11-17T22:57:41.860Z,47.23
2022-11-17T23:00:46.011Z,39.23
2022-11-17T23:03:51.402Z,43.77
2022-11-17T23:06:55.265Z,37.03
2022-11-17T23:09:59.072Z,38.03
2022-11-17T23:13:02.891Z,39.43
2022-11-17T23:16:07.491Z,48.57
2022-11-17T23:19:15.769Z,37.57
2022-11-17T23:22:20.094Z,38.30
2022-11-17T23:25:23.861Z,36.57
2022-11-17T23:28:27.602Z,38.37
2022-11-17T23:31:31.358Z,33.33
2022-11-17T23:34:36.509Z,32.40
2022-11-17T23:37:40.161Z,30.67
2022-11-17T23:40:44.084Z,30.07
2022-11-17T23:43:48.232Z,31.77
2022-11-17T23:46:52.011Z,28.40
2022-11-17T23:49:57.443Z,38.63
2022-11-17T23:53:01.186Z,26.43
2022-11-17T23:56:06.231Z,26.43
2022-11-17T23:59:10.131Z,29.47
